createdAt,value
2023-03-20T00:01:20.130Z,45.72
2023-03-20T00:03:46.893Z,40.40
2023-03-20T00:06:20.183Z,46.92
2023-03-20T00:08:48.704Z,41.78
2023-03-20T00:11:31.150Z,44.50
2023-03-20T00:14:00.877Z,45.33
2023-03-20T00:16:34.563Z,44.42
2023-03-20T00:19:01.934Z,43.58
2023-03-20T00:21:28.729Z,48.78
2023-03-20T00:23:56.650Z,43.20
2023-03-20T00:26:35.485Z,51.45
2023-03-20T00:29:04.179Z,46.53
2023-03-20T00:31:35.420Z,46.38
2023-03-20T00:34:10.190Z,47.08
2023-03-20T00:36:36.731Z,43.53
2023-03-20T00:39:04.651Z,48.72
2023-03-20T00:41:36.658Z,46.25
2023-03-20T00:44:12.680Z,51.08
2023-03-20T00:46:39.791Z,44.60
2023-03-20T00:49:06.452Z,53.80
2023-03-20T00:51:33.007Z,44.75
2023-03-20T00:53:59.641Z,48.80
2023-03-20T00:56:33.983Z,46.78
2023-03-20T00:59:04.314Z,43.60
2023-03-20T01:01:32.148Z,42.35
2023-03-20T01:03:59.818Z,40.42
2023-03-20T01:06:26.404Z,50.35
2023-03-20T01:08:52.930Z,43.55
2023-03-20T01:11:23.305Z,43.00
2023-03-20T01:13:52.279Z,37.90
2023-03-20T01:16:23.095Z,46.05
2023-03-20T01:18:50.529Z,47.00
2023-03-20T01:21:18.485Z,49.38
2023-03-20T01:23:45.134Z,38.75
2023-03-20T01:26:51.800Z,44.13
2023-03-20T01:29:21.823Z,41.35
2023-03-20T01:31:49.523Z,40.50
2023-03-20T01:34:19.222Z,50.80
2023-03-20T01:36:52.964Z,45.15
2023-03-20T01:39:21.895Z,39.22
2023-03-20T01:41:49.671Z,38.63
2023-03-20T01:44:22.100Z,42.92
2023-03-20T01:46:49.986Z,43.53
2023-03-20T01:49:19.407Z,46.17
2023-03-20T01:51:49.755Z,44.45
2023-03-20T01:54:38.000Z,44.22
2023-03-20T01:57:16.648Z,40.53
2023-03-20T02:00:04.098Z,39.65
2023-03-20T02:02:32.001Z,42.85
2023-03-20T02:05:07.168Z,42.10
2023-03-20T02:07:34.948Z,50.85
2023-03-20T02:10:03.887Z,44.70
2023-03-20T02:12:31.535Z,46.30
2023-03-20T02:14:58.601Z,43.88
2023-03-20T02:17:25.025Z,44.85
2023-03-20T02:20:06.293Z,44.15
2023-03-20T02:22:51.418Z,45.80
2023-03-20T02:25:55.133Z,47.08
2023-03-20T02:31:54.221Z,44.42
2023-03-20T02:34:35.920Z,45.53
2023-03-20T02:37:30.262Z,47.72
2023-03-20T02:40:10.796Z,51.28
2023-03-20T02:42:51.120Z,46.13
2023-03-20T02:45:26.562Z,48.20
2023-03-20T02:48:17.943Z,48.42
2023-03-20T02:50:53.860Z,49.83
2023-03-20T02:53:41.836Z,52.20
2023-03-20T02:56:11.489Z,49.70
2023-03-20T02:58:59.318Z,49.53
2023-03-20T03:01:33.108Z,51.90
2023-03-20T03:04:25.227Z,49.97
2023-03-20T03:06:55.683Z,47.22
2023-03-20T03:09:31.108Z,46.25
2023-03-20T03:12:05.408Z,47.90
2023-03-20T03:14:42.820Z,50.17
2023-03-20T03:17:10.913Z,47.10
2023-03-20T03:19:41.628Z,43.65
2023-03-20T03:22:08.342Z,42.58
2023-03-20T03:24:43.096Z,42.00
2023-03-20T03:27:21.261Z,43.67
2023-03-20T03:29:53.850Z,41.83
2023-03-20T03:32:29.557Z,39.20
2023-03-20T03:34:57.276Z,37.83
2023-03-20T03:37:39.317Z,37.40
2023-03-20T03:40:46.029Z,44.10
2023-03-20T03:43:23.869Z,37.33
2023-03-20T03:45:57.861Z,36.20
2023-03-20T03:48:30.564Z,36.70
2023-03-20T03:51:02.494Z,34.78
2023-03-20T03:53:36.462Z,30.55
2023-03-20T03:56:07.875Z,28.25
2023-03-20T03:58:42.873Z,23.38
2023-03-20T04:01:14.308Z,29.17
2023-03-20T04:04:06.126Z,25.92
2023-03-20T04:06:33.376Z,19.55
2023-03-20T04:08:59.687Z,19.08
2023-03-20T04:11:29.023Z,20.15
2023-03-20T04:13:55.797Z,23.55
2023-03-20T04:16:24.358Z,22.45
2023-03-20T04:18:51.546Z,24.60
2023-03-20T04:21:18.660Z,24.83
2023-03-20T04:23:45.342Z,19.92
2023-03-20T04:26:11.946Z,18.98
2023-03-20T04:28:38.301Z,17.85
2023-03-20T04:31:04.786Z,18.55
2023-03-20T04:33:31.114Z,22.92
2023-03-20T04:35:57.478Z,18.88
2023-03-20T04:38:24.404Z,22.42
2023-03-20T04:40:51.027Z,20.65
2023-03-20T04:43:17.646Z,21.52
2023-03-20T04:45:44.131Z,19.65
2023-03-20T04:48:10.862Z,20.38
2023-03-20T04:50:37.290Z,19.85
2023-03-20T04:53:03.788Z,22.75
2023-03-20T04:55:30.216Z,20.42
2023-03-20T04:57:56.555Z,17.05
2023-03-20T05:00:23.211Z,22.05
2023-03-20T05:02:49.539Z,23.50
2023-03-20T05:05:15.878Z,24.10
2023-03-20T05:07:42.184Z,20.92
2023-03-20T05:10:09.250Z,23.05
2023-03-20T05:12:35.754Z,28.65
2023-03-20T05:15:02.161Z,18.70
2023-03-20T05:17:28.477Z,19.15
2023-03-20T05:19:54.801Z,23.02
2023-03-20T05:22:21.135Z,21.17
2023-03-20T05:24:47.517Z,20.63
2023-03-20T05:27:13.893Z,23.23
2023-03-20T05:29:40.295Z,21.55
2023-03-20T05:32:06.745Z,24.27
2023-03-20T05:34:33.093Z,20.92
2023-03-20T05:36:59.510Z,22.15
2023-03-20T05:39:26.021Z,21.33
2023-03-20T05:41:52.372Z,19.30
2023-03-20T05:44:18.711Z,20.08
2023-03-20T05:46:45.177Z,20.73
2023-03-20T05:49:11.531Z,24.25
2023-03-20T05:51:38.095Z,19.67
2023-03-20T05:54:04.894Z,20.60
2023-03-20T05:56:31.435Z,18.90
2023-03-20T05:58:57.764Z,22.80
2023-03-20T06:01:24.153Z,22.67
2023-03-20T06:03:50.840Z,21.13
2023-03-20T06:06:17.797Z,20.58
2023-03-20T06:08:44.306Z,25.63
2023-03-20T06:11:12.011Z,21.02
2023-03-20T06:13:38.384Z,24.10
2023-03-20T06:16:05.167Z,23.98
2023-03-20T06:18:31.571Z,20.98
2023-03-20T06:20:58.096Z,22.52
2023-03-20T06:23:24.474Z,22.08
2023-03-20T06:25:51.235Z,21.98
2023-03-20T06:28:17.640Z,24.45
2023-03-20T06:30:44.482Z,22.48
2023-03-20T06:33:10.912Z,23.45
2023-03-20T06:35:37.536Z,24.10
2023-03-20T06:38:04.065Z,23.95
2023-03-20T06:40:30.530Z,23.33
2023-03-20T06:42:56.999Z,25.02
2023-03-20T06:45:25.963Z,29.60
2023-03-20T06:47:52.411Z,26.90
2023-03-20T06:50:18.860Z,26.88
2023-03-20T06:52:45.249Z,27.63
2023-03-20T06:55:11.799Z,23.00
2023-03-20T06:57:38.541Z,23.25
2023-03-20T07:00:06.290Z,24.77
2023-03-20T07:02:33.268Z,22.27
2023-03-20T07:04:59.645Z,25.58
2023-03-20T07:07:25.993Z,22.08
2023-03-20T07:09:52.316Z,20.63
2023-03-20T07:12:22.872Z,22.85
2023-03-20T07:14:49.850Z,18.10
2023-03-20T07:17:16.596Z,22.58
2023-03-20T07:19:42.933Z,20.83
2023-03-20T07:22:18.404Z,21.40
2023-03-20T07:24:47.197Z,21.15
2023-03-20T07:27:13.745Z,17.50
2023-03-20T07:29:40.067Z,13.75
2023-03-20T07:32:06.479Z,13.77
2023-03-20T07:34:32.799Z,16.35
2023-03-20T07:36:59.301Z,13.80
2023-03-20T07:39:25.816Z,14.73
2023-03-20T07:41:52.285Z,14.15
2023-03-20T07:44:19.405Z,12.80
2023-03-20T07:46:49.113Z,16.10
2023-03-20T07:49:18.350Z,16.85
2023-03-20T07:51:49.137Z,14.50
2023-03-20T07:54:16.126Z,13.10
2023-03-20T07:56:45.269Z,15.52
2023-03-20T07:59:12.720Z,12.55
2023-03-20T08:01:44.238Z,16.63
2023-03-20T08:08:02.314Z,12.68
2023-03-20T08:10:29.021Z,10.65
2023-03-20T08:12:56.187Z,10.95
2023-03-20T08:15:22.722Z,10.38
2023-03-20T08:17:49.720Z,12.55
2023-03-20T08:20:17.383Z,13.93
2023-03-20T08:22:47.131Z,14.35
2023-03-20T08:25:13.643Z,15.07
2023-03-20T08:27:40.176Z,16.23
2023-03-20T08:30:07.477Z,13.88
2023-03-20T08:32:34.049Z,11.73
2023-03-20T08:35:00.739Z,10.68
2023-03-20T08:37:27.794Z,13.50
2023-03-20T08:39:57.079Z,15.93
2023-03-20T08:42:23.637Z,12.18
2023-03-20T08:44:50.568Z,14.43
2023-03-20T08:47:17.180Z,14.50
2023-03-20T08:49:43.756Z,11.43
2023-03-20T08:52:10.331Z,14.90
2023-03-20T08:54:36.879Z,16.10
2023-03-20T08:57:03.460Z,12.68
2023-03-20T08:59:29.932Z,15.43
2023-03-20T09:01:56.438Z,14.50
2023-03-20T09:04:23.046Z,12.80
2023-03-20T09:06:50.520Z,18.55
2023-03-20T09:09:19.883Z,13.38
2023-03-20T09:11:46.488Z,18.52
2023-03-20T09:14:13.078Z,13.48
2023-03-20T09:16:39.642Z,13.32
2023-03-20T09:19:06.560Z,14.30
2023-03-20T09:21:33.018Z,14.20
2023-03-20T09:23:59.542Z,10.80
2023-03-20T09:26:25.941Z,11.40
2023-03-20T09:28:52.403Z,12.60
2023-03-20T09:31:18.906Z,12.93
2023-03-20T09:33:45.657Z,13.75
2023-03-20T09:36:12.348Z,13.63
2023-03-20T09:38:41.845Z,9.48
2023-03-20T09:41:18.685Z,9.85
2023-03-20T09:43:45.427Z,14.68
2023-03-20T09:46:38.718Z,10.48
2023-03-20T09:49:23.364Z,10.23
2023-03-20T09:52:08.071Z,10.45
2023-03-20T09:54:53.619Z,12.27
2023-03-20T09:57:35.283Z,10.25
2023-03-20T10:00:07.875Z,10.93
2023-03-20T10:02:50.079Z,12.05
2023-03-20T10:05:31.709Z,9.43
2023-03-20T10:08:01.910Z,9.00
2023-03-20T10:11:16.260Z,12.45
2023-03-20T10:13:58.532Z,10.27
2023-03-20T10:16:53.203Z,9.38
2023-03-20T10:19:29.839Z,8.93
2023-03-20T10:22:02.788Z,9.75
2023-03-20T10:24:44.377Z,10.70
2023-03-20T10:27:34.139Z,8.25
2023-03-20T10:30:25.937Z,8.43
2023-03-20T10:33:26.756Z,6.55
2023-03-20T10:36:22.459Z,7.80
2023-03-20T10:39:12.707Z,10.25
2023-03-20T10:41:43.163Z,9.07
2023-03-20T10:44:17.069Z,9.27
2023-03-20T10:46:51.610Z,7.97
2023-03-20T10:49:36.468Z,7.22
2023-03-20T10:52:09.696Z,8.35
2023-03-20T10:54:43.565Z,10.05
2023-03-20T10:57:24.882Z,7.22
2023-03-20T10:59:52.480Z,4.47
2023-03-20T11:02:23.235Z,6.82
2023-03-20T11:04:50.446Z,8.48
2023-03-20T11:07:32.704Z,10.52
2023-03-20T11:10:05.073Z,5.97
2023-03-20T11:12:37.644Z,7.15
2023-03-20T11:15:19.309Z,6.70
2023-03-20T11:17:57.847Z,7.22
2023-03-20T11:20:26.738Z,8.15
2023-03-20T11:23:18.118Z,8.88
2023-03-20T11:26:04.057Z,5.15
2023-03-20T11:28:42.364Z,7.82
2023-03-20T11:31:19.803Z,7.47
2023-03-20T11:33:52.628Z,9.98
2023-03-20T11:36:25.326Z,9.68
2023-03-20T11:38:58.561Z,6.40
2023-03-20T11:41:28.129Z,10.45
2023-03-20T11:43:55.260Z,7.30
2023-03-20T11:46:24.416Z,6.63
2023-03-20T11:49:17.346Z,7.63
2023-03-20T11:51:43.957Z,5.97
2023-03-20T11:54:17.572Z,7.32
2023-03-20T11:57:00.728Z,6.95
2023-03-20T11:59:34.074Z,5.70
2023-03-20T12:02:03.025Z,8.55
2023-03-20T12:04:37.749Z,9.90
2023-03-20T12:07:13.126Z,6.28
2023-03-20T12:09:48.605Z,6.20
2023-03-20T12:12:36.928Z,7.10
2023-03-20T12:15:12.732Z,6.30
2023-03-20T12:18:03.348Z,8.52
2023-03-20T12:21:04.052Z,7.35
2023-03-20T12:23:39.865Z,5.78
2023-03-20T12:26:15.536Z,9.77
2023-03-20T12:28:52.123Z,6.57
2023-03-20T12:31:24.866Z,6.25
2023-03-20T12:33:51.425Z,5.60
2023-03-20T12:36:27.670Z,5.28
2023-03-20T12:38:54.144Z,5.07
2023-03-20T12:41:48.929Z,6.63
2023-03-20T12:44:21.940Z,7.82
2023-03-20T12:49:37.918Z,6.53
2023-03-20T12:52:44.881Z,5.63
2023-03-20T12:55:25.761Z,10.27
2023-03-20T12:58:07.166Z,7.95
2023-03-20T13:00:49.644Z,7.63
2023-03-20T13:03:34.254Z,10.18
2023-03-20T13:06:36.682Z,6.00
2023-03-20T13:09:23.049Z,6.70
2023-03-20T13:12:08.755Z,6.80
2023-03-20T13:14:44.369Z,7.20
2023-03-20T13:17:33.748Z,6.63
2023-03-20T13:20:06.468Z,6.47
2023-03-20T13:22:48.599Z,6.95
2023-03-20T13:25:32.198Z,8.13
2023-03-20T13:28:04.437Z,4.60
2023-03-20T13:30:44.802Z,6.53
2023-03-20T13:33:45.134Z,12.93
2023-03-20T13:39:22.187Z,8.02
2023-03-20T13:41:49.492Z,7.90
2023-03-20T13:44:20.884Z,6.70
2023-03-20T13:46:55.254Z,4.72
2023-03-20T13:49:48.078Z,4.45
2023-03-20T13:52:19.212Z,6.18
2023-03-20T13:54:53.608Z,6.45
2023-03-20T13:58:20.340Z,7.38
2023-03-20T14:00:56.131Z,4.60
2023-03-20T14:03:30.836Z,8.60
2023-03-20T14:05:57.427Z,5.63
2023-03-20T14:08:26.776Z,4.97
2023-03-20T14:11:07.735Z,4.85
2023-03-20T14:13:35.383Z,4.22
2023-03-20T14:16:07.441Z,5.90
2023-03-20T14:18:34.040Z,5.60
2023-03-20T14:21:02.401Z,7.95
2023-03-20T14:23:34.950Z,5.53
2023-03-20T14:26:05.933Z,8.25
2023-03-20T14:28:44.545Z,6.35
2023-03-20T14:31:23.097Z,5.07
2023-03-20T14:34:12.485Z,7.15
2023-03-20T14:36:59.577Z,5.13
2023-03-20T14:39:41.264Z,7.55
2023-03-20T14:42:35.325Z,6.22
2023-03-20T14:45:14.023Z,7.13
2023-03-20T14:48:01.815Z,5.70
2023-03-20T14:50:46.477Z,9.98
2023-03-20T14:53:19.329Z,8.73
2023-03-20T14:56:05.575Z,7.30
2023-03-20T14:58:37.791Z,8.48
2023-03-20T15:01:06.628Z,5.93
2023-03-20T15:03:33.496Z,8.40
2023-03-20T15:06:04.520Z,7.72
2023-03-20T15:08:37.346Z,9.60
2023-03-20T15:11:08.758Z,6.15
2023-03-20T15:13:37.566Z,5.75
2023-03-20T15:16:06.978Z,8.07
2023-03-20T15:18:39.133Z,9.30
2023-03-20T15:21:13.289Z,9.63
2023-03-20T15:23:42.583Z,9.75
2023-03-20T15:26:09.098Z,4.55
2023-03-20T15:28:37.951Z,8.05
2023-03-20T15:31:06.358Z,10.45
2023-03-20T15:33:36.558Z,7.40
2023-03-20T15:36:15.998Z,6.75
2023-03-20T15:38:44.223Z,7.90
2023-03-20T15:41:31.993Z,10.93
2023-03-20T15:44:20.628Z,7.13
2023-03-20T15:47:03.360Z,7.93
2023-03-20T15:49:32.406Z,5.72
2023-03-20T15:52:03.038Z,6.75
2023-03-20T15:54:29.583Z,9.13
2023-03-20T15:57:00.646Z,8.23
2023-03-20T15:59:31.396Z,6.97
2023-03-20T16:01:59.459Z,7.40
2023-03-20T16:04:26.959Z,8.10
2023-03-20T16:06:56.220Z,11.52
2023-03-20T16:09:23.384Z,8.55
2023-03-20T16:11:59.651Z,6.95
2023-03-20T16:14:33.498Z,6.07
2023-03-20T16:17:02.820Z,6.15
2023-03-20T16:19:29.747Z,5.93
2023-03-20T16:21:59.552Z,4.65
2023-03-20T16:24:31.230Z,7.95
2023-03-20T16:26:58.400Z,5.68
2023-03-20T16:29:28.122Z,6.95
2023-03-20T16:32:03.854Z,9.50
2023-03-20T16:34:38.611Z,4.78
2023-03-20T16:37:32.576Z,8.25
2023-03-20T16:40:18.088Z,6.30
2023-03-20T16:42:45.553Z,5.82
2023-03-20T16:45:22.068Z,7.85
2023-03-20T16:47:49.549Z,9.60
2023-03-20T16:50:19.109Z,8.13
2023-03-20T16:53:14.168Z,9.77
2023-03-20T16:55:51.291Z,8.82
2023-03-20T16:58:21.961Z,18.50
2023-03-20T17:00:57.511Z,5.45
2023-03-20T17:03:30.399Z,9.88
2023-03-20T17:05:59.673Z,9.48
2023-03-20T17:08:40.059Z,10.85
2023-03-20T17:11:12.962Z,9.55
2023-03-20T17:13:41.181Z,11.27
2023-03-20T17:16:13.689Z,9.30
2023-03-20T17:18:40.496Z,10.60
2023-03-20T17:21:07.096Z,12.18
2023-03-20T17:23:33.444Z,11.48
2023-03-20T17:25:59.787Z,11.65
2023-03-20T17:28:33.797Z,13.23
2023-03-20T17:31:05.007Z,9.20
2023-03-20T17:33:33.205Z,11.27
2023-03-20T17:36:00.797Z,10.50
2023-03-20T17:38:27.614Z,10.45
2023-03-20T17:40:54.060Z,9.90
2023-03-20T17:43:20.881Z,12.02
2023-03-20T17:45:47.772Z,10.63
2023-03-20T17:48:17.992Z,12.77
2023-03-20T17:50:45.798Z,12.00
2023-03-20T17:53:28.747Z,12.52
2023-03-20T17:55:55.242Z,12.18
2023-03-20T17:58:23.309Z,12.38
2023-03-20T18:00:54.748Z,15.40
2023-03-20T18:03:21.652Z,13.40
2023-03-20T18:05:50.535Z,10.70
2023-03-20T18:08:21.318Z,13.07
2023-03-20T18:10:49.665Z,14.70
2023-03-20T18:13:20.751Z,12.98
2023-03-20T18:15:51.523Z,13.75
2023-03-20T18:18:23.719Z,12.07
2023-03-20T18:20:52.269Z,17.38
2023-03-20T18:23:18.739Z,12.10
2023-03-20T18:25:45.188Z,15.27
2023-03-20T18:28:18.379Z,14.05
2023-03-20T18:30:45.985Z,17.17
2023-03-20T18:33:12.426Z,17.13
2023-03-20T18:35:38.874Z,12.68
2023-03-20T18:38:05.578Z,13.02
2023-03-20T18:40:34.474Z,20.33
2023-03-20T18:43:01.386Z,13.82
2023-03-20T18:45:29.658Z,19.50
2023-03-20T18:47:57.329Z,20.77
2023-03-20T18:50:35.057Z,13.57
2023-03-20T18:53:04.535Z,15.43
2023-03-20T18:55:31.654Z,13.82
2023-03-20T18:57:58.981Z,17.70
2023-03-20T19:00:39.829Z,16.90
2023-03-20T19:03:07.953Z,14.90
2023-03-20T19:05:34.369Z,14.00
2023-03-20T19:08:01.050Z,14.73
2023-03-20T19:10:39.309Z,18.40
2023-03-20T19:13:07.538Z,21.33
2023-03-20T19:15:37.140Z,14.73
2023-03-20T19:18:24.684Z,16.92
2023-03-20T19:20:53.200Z,14.20
2023-03-20T19:23:20.548Z,16.52
2023-03-20T19:25:49.363Z,20.38
2023-03-20T19:28:39.324Z,17.50
2023-03-20T19:31:06.873Z,17.50
2023-03-20T19:33:33.872Z,14.27
2023-03-20T19:36:03.687Z,14.32
2023-03-20T19:38:31.559Z,18.23
2023-03-20T19:40:59.279Z,17.77
2023-03-20T19:43:25.864Z,18.15
2023-03-20T19:45:57.999Z,20.38
2023-03-20T19:48:43.333Z,18.60
2023-03-20T19:51:19.948Z,20.05
2023-03-20T19:53:47.077Z,17.75
2023-03-20T19:56:15.478Z,21.65
2023-03-20T19:58:43.318Z,17.35
2023-03-20T20:01:16.019Z,23.02
2023-03-20T20:03:46.257Z,21.38
2023-03-20T20:06:13.066Z,22.27
2023-03-20T20:08:49.047Z,19.42
2023-03-20T20:11:20.590Z,19.85
2023-03-20T20:14:05.169Z,24.92
2023-03-20T20:16:35.393Z,15.68
2023-03-20T20:19:02.378Z,18.15
2023-03-20T20:24:16.365Z,17.50
2023-03-20T20:26:53.394Z,19.25
2023-03-20T20:29:21.715Z,17.90
2023-03-20T20:31:48.434Z,14.82
2023-03-20T20:39:49.834Z,17.23
2023-03-20T20:42:20.505Z,20.67
2023-03-20T20:44:47.552Z,17.00
2023-03-20T20:47:14.731Z,18.63
2023-03-20T20:49:41.495Z,18.42
2023-03-20T20:52:08.842Z,18.05
2023-03-20T20:54:35.330Z,20.85
2023-03-20T20:57:02.107Z,22.15
2023-03-20T20:59:29.451Z,19.38
2023-03-20T21:01:56.441Z,23.02
2023-03-20T21:04:23.508Z,16.05
2023-03-20T21:07:08.652Z,21.33
2023-03-20T21:09:36.678Z,18.75
2023-03-20T21:12:04.135Z,19.02
2023-03-20T21:14:30.824Z,19.70
2023-03-20T21:17:00.964Z,24.52
2023-03-20T21:19:35.405Z,18.00
2023-03-20T21:22:01.929Z,23.60
2023-03-20T21:24:33.638Z,21.73
2023-03-20T21:27:05.397Z,17.30
2023-03-20T21:29:31.958Z,18.73
2023-03-20T21:31:58.609Z,21.13
2023-03-20T21:34:26.098Z,22.20
2023-03-20T21:36:52.724Z,19.02
2023-03-20T21:39:19.398Z,18.95
2023-03-20T21:41:46.128Z,22.08
2023-03-20T21:44:17.417Z,20.08
2023-03-20T21:47:38.087Z,19.43
2023-03-20T21:50:30.836Z,21.25
2023-03-20T21:53:14.765Z,20.65
2023-03-20T21:56:08.983Z,17.70
2023-03-20T22:04:37.563Z,20.02
2023-03-20T22:12:30.257Z,20.52
2023-03-20T22:15:20.083Z,17.10
2023-03-20T22:17:55.897Z,18.08
2023-03-20T22:23:42.671Z,18.60
2023-03-20T22:26:36.394Z,17.48
2023-03-20T22:45:11.624Z,24.98
2023-03-20T22:47:38.397Z,20.98
2023-03-20T22:50:06.233Z,20.67
2023-03-20T22:52:48.128Z,25.20
2023-03-20T22:55:16.781Z,22.10
2023-03-20T22:57:52.888Z,20.45
2023-03-20T23:00:29.989Z,22.77
2023-03-20T23:03:06.665Z,17.50
2023-03-20T23:05:41.092Z,22.70
2023-03-20T23:08:08.999Z,20.10
2023-03-20T23:10:38.049Z,21.35
2023-03-20T23:13:04.733Z,21.15
2023-03-20T23:15:31.703Z,19.98
2023-03-20T23:17:58.760Z,17.40
2023-03-20T23:20:25.634Z,19.83
2023-03-20T23:22:52.152Z,20.45
2023-03-20T23:25:36.057Z,20.85
2023-03-20T23:28:04.916Z,19.38
2023-03-20T23:30:41.959Z,19.27
2023-03-20T23:33:10.847Z,21.00
2023-03-20T23:35:37.486Z,20.50
2023-03-20T23:38:03.996Z,24.90
2023-03-20T23:40:31.057Z,25.85
2023-03-20T23:42:57.629Z,21.40
2023-03-20T23:45:24.357Z,22.92
2023-03-20T23:47:51.060Z,20.77
2023-03-20T23:53:19.461Z,22.00
2023-03-20T23:55:48.326Z,20.23
2023-03-20T23:58:15.720Z,21.17
